createdAt,value
2018-04-10T00:00:54.979Z,14.93
2018-04-10T00:01:55.116Z,14.71
2018-04-10T00:02:55.253Z,14.59
2018-04-10T00:03:55.391Z,14.53
2018-04-10T00:04:55.538Z,14.52
2018-04-10T00:05:55.667Z,14.71
2018-04-10T00:06:55.817Z,14.73
2018-04-10T00:07:56.089Z,14.77
2018-04-10T00:08:56.106Z,14.74
2018-04-10T00:09:56.243Z,14.85
2018-04-10T00:10:56.397Z,14.86
2018-04-10T00:11:56.531Z,14.96
2018-04-10T00:12:56.661Z,14.97
2018-04-10T00:13:56.818Z,14.95
2018-04-10T00:14:56.981Z,15.03
2018-04-10T00:15:57.129Z,14.99
2018-04-10T00:16:57.276Z,14.96
2018-04-10T00:17:57.417Z,15.03
2018-04-10T00:18:57.552Z,15.04
2018-04-10T00:19:57.701Z,15.05
2018-04-10T00:20:57.843Z,14.97
2018-04-10T00:21:57.979Z,14.97
2018-04-10T00:22:58.115Z,15.03
2018-04-10T00:23:58.262Z,15.07
2018-04-10T00:24:58.397Z,15.07
2018-04-10T00:25:58.538Z,15.04
2018-04-10T00:26:58.672Z,15.04
2018-04-10T00:27:58.811Z,15.12
2018-04-10T00:28:58.962Z,15.07
2018-04-10T00:29:59.094Z,15.08
2018-04-10T00:30:59.232Z,14.97
2018-04-10T00:31:59.378Z,15.07
2018-04-10T00:32:59.515Z,15.04
2018-04-10T00:33:59.654Z,15.04
2018-04-10T00:34:59.787Z,14.95
2018-04-10T00:35:59.937Z,14.89
2018-04-10T00:37:00.072Z,14.90
2018-04-10T00:38:00.211Z,14.82
2018-04-10T00:39:00.353Z,14.69
2018-04-10T00:40:00.492Z,14.64
2018-04-10T00:41:00.627Z,14.71
2018-04-10T00:42:00.767Z,14.77
2018-04-10T00:43:00.902Z,14.70
2018-04-10T00:44:01.046Z,14.71
2018-04-10T00:45:01.178Z,14.71
2018-04-10T00:46:01.313Z,14.74
2018-04-10T00:47:01.454Z,14.71
2018-04-10T00:48:01.590Z,14.83
2018-04-10T00:49:01.734Z,14.77
2018-04-10T00:50:01.864Z,14.92
2018-04-10T00:51:02.005Z,14.93
2018-04-10T00:52:02.144Z,14.85
2018-04-10T00:53:02.283Z,14.95
2018-04-10T00:54:02.443Z,14.90
2018-04-10T00:55:02.573Z,14.97
2018-04-10T00:56:02.714Z,14.87
2018-04-10T00:57:02.854Z,14.93
2018-04-10T00:58:03.018Z,14.90
2018-04-10T00:59:03.156Z,14.92
2018-04-10T01:00:03.291Z,14.92
2018-04-10T01:01:03.435Z,14.96
2018-04-10T01:02:03.586Z,14.93
2018-04-10T01:03:03.730Z,14.86
2018-04-10T01:04:03.868Z,14.89
2018-04-10T01:05:04.008Z,14.85
2018-04-10T01:06:04.189Z,14.82
2018-04-10T01:07:04.298Z,14.85
2018-04-10T01:08:04.445Z,14.90
2018-04-10T01:09:04.593Z,14.90
2018-04-10T01:10:04.727Z,14.85
2018-04-10T01:11:04.868Z,14.78
2018-04-10T01:12:05.004Z,14.74
2018-04-10T01:13:05.907Z,14.79
2018-04-10T01:14:05.323Z,14.67
2018-04-10T01:15:05.474Z,14.82
2018-04-10T01:16:05.616Z,14.67
2018-04-10T01:17:05.752Z,14.64
2018-04-10T01:18:05.914Z,14.61
2018-04-10T01:19:06.045Z,14.58
2018-04-10T01:20:06.186Z,14.56
2018-04-10T01:21:06.328Z,14.67
2018-04-10T01:22:06.478Z,14.56
2018-04-10T01:23:06.614Z,14.53
2018-04-10T01:24:06.759Z,14.51
2018-04-10T01:25:06.949Z,14.31
2018-04-10T01:26:07.044Z,14.19
2018-04-10T01:27:07.188Z,14.23
2018-04-10T01:28:07.361Z,14.23
2018-04-10T01:29:07.517Z,13.88
2018-04-10T01:30:07.650Z,13.55
2018-04-10T01:31:07.782Z,13.57
2018-04-10T01:32:07.923Z,13.49
2018-04-10T01:33:08.067Z,13.55
2018-04-10T01:34:08.200Z,13.64
2018-04-10T01:35:08.337Z,13.72
2018-04-10T01:36:08.476Z,13.78
2018-04-10T01:37:08.617Z,13.86
2018-04-10T01:38:08.754Z,13.91
2018-04-10T01:39:08.888Z,13.91
2018-04-10T01:40:09.031Z,14.08
2018-04-10T01:41:09.169Z,13.98
2018-04-10T01:42:09.310Z,14.11
2018-04-10T01:43:09.449Z,14.18
2018-04-10T01:44:09.587Z,14.15
2018-04-10T01:45:09.732Z,14.19
2018-04-10T01:46:09.871Z,14.18
2018-04-10T01:47:10.011Z,14.18
2018-04-10T01:48:10.148Z,14.31
2018-04-10T01:49:10.294Z,14.22
2018-04-10T01:50:10.430Z,14.18
2018-04-10T01:51:10.570Z,14.27
2018-04-10T01:52:10.717Z,14.15
2018-04-10T01:53:10.855Z,14.03
2018-04-10T01:54:10.992Z,14.12
2018-04-10T01:55:11.132Z,14.03
2018-04-10T01:56:11.271Z,14.22
2018-04-10T01:57:11.411Z,14.15
2018-04-10T01:58:11.546Z,14.12
2018-04-10T01:59:11.688Z,14.22
2018-04-10T02:00:11.824Z,14.19
2018-04-10T02:01:11.956Z,14.21
2018-04-10T02:02:12.095Z,14.26
2018-04-10T02:03:12.239Z,14.18
2018-04-10T02:04:12.376Z,14.28
2018-04-10T02:05:12.516Z,14.26
2018-04-10T02:06:12.655Z,14.28
2018-04-10T02:07:12.795Z,14.26
2018-04-10T02:08:12.964Z,14.22
2018-04-10T02:09:13.093Z,14.22
2018-04-10T02:10:13.239Z,14.15
2018-04-10T02:11:13.392Z,14.26
2018-04-10T02:12:13.541Z,14.22
2018-04-10T02:13:13.688Z,14.18
2018-04-10T02:14:13.847Z,14.21
2018-04-10T02:15:13.986Z,14.21
2018-04-10T02:16:14.135Z,14.13
2018-04-10T02:17:14.280Z,14.18
2018-04-10T02:18:14.448Z,14.19
2018-04-10T02:19:14.592Z,14.16
2018-04-10T02:20:14.744Z,14.21
2018-04-10T02:21:14.901Z,14.21
2018-04-10T02:22:15.055Z,14.27
2018-04-10T02:23:15.201Z,14.23
2018-04-10T02:24:15.332Z,14.22
2018-04-10T02:25:15.504Z,14.22
2018-04-10T02:26:15.650Z,14.28
2018-04-10T02:27:15.801Z,14.30
2018-04-10T02:28:15.943Z,14.19
2018-04-10T02:29:16.108Z,14.22
2018-04-10T02:30:16.251Z,14.19
2018-04-10T02:31:16.399Z,13.97
2018-04-10T02:32:16.543Z,13.83
2018-04-10T02:33:16.703Z,13.90
2018-04-10T02:34:16.845Z,14.00
2018-04-10T02:35:16.993Z,13.91
2018-04-10T02:36:17.190Z,13.93
2018-04-10T02:37:17.314Z,13.94
2018-04-10T02:38:17.466Z,13.96
2018-04-10T02:39:17.606Z,14.01
2018-04-10T02:40:17.760Z,13.85
2018-04-10T02:41:17.905Z,13.72
2018-04-10T02:42:18.053Z,13.78
2018-04-10T02:43:18.233Z,13.79
2018-04-10T02:44:18.378Z,13.72
2018-04-10T02:45:18.522Z,13.64
2018-04-10T02:46:18.677Z,13.61
2018-04-10T02:47:18.826Z,13.67
2018-04-10T02:48:18.969Z,13.51
2018-04-10T02:49:19.133Z,13.49
2018-04-10T02:50:19.281Z,13.40
2018-04-10T02:51:19.425Z,13.51
2018-04-10T02:52:19.568Z,13.36
2018-04-10T02:53:19.732Z,13.39
2018-04-10T02:54:19.862Z,13.42
2018-04-10T02:55:20.008Z,13.45
2018-04-10T02:56:20.160Z,13.55
2018-04-10T02:57:20.301Z,13.53
2018-04-10T02:58:20.444Z,13.35
2018-04-10T02:59:20.593Z,13.02
2018-04-10T03:00:20.742Z,12.79
2018-04-10T03:01:20.890Z,12.77
2018-04-10T03:02:21.037Z,12.71
2018-04-10T03:03:21.187Z,12.55
2018-04-10T03:04:21.328Z,12.68
2018-04-10T03:05:21.459Z,12.77
2018-04-10T03:06:21.612Z,12.88
2018-04-10T03:07:21.758Z,12.91
2018-04-10T03:08:21.908Z,13.05
2018-04-10T03:09:22.054Z,13.06
2018-04-10T03:10:22.190Z,13.20
2018-04-10T03:11:22.337Z,13.26
2018-04-10T03:12:22.483Z,13.16
2018-04-10T03:13:22.627Z,13.23
2018-04-10T03:14:22.776Z,13.40
2018-04-10T03:15:22.922Z,13.43
2018-04-10T03:16:23.068Z,13.35
2018-04-10T03:17:23.215Z,13.40
2018-04-10T03:18:23.363Z,13.47
2018-04-10T03:19:23.510Z,13.42
2018-04-10T03:20:23.661Z,13.54
2018-04-10T03:21:23.802Z,13.51
2018-04-10T03:22:23.945Z,13.49
2018-04-10T03:23:24.099Z,13.54
2018-04-10T03:24:24.237Z,13.58
2018-04-10T03:25:24.384Z,13.53
2018-04-10T03:26:24.533Z,13.57
2018-04-10T03:27:24.684Z,13.58
2018-04-10T03:28:24.821Z,13.65
2018-04-10T03:29:24.973Z,13.65
2018-04-10T03:30:25.119Z,13.65
2018-04-10T03:31:25.261Z,13.64
2018-04-10T03:32:25.406Z,13.72
2018-04-10T03:33:25.557Z,13.65
2018-04-10T03:34:25.735Z,13.58
2018-04-10T03:35:25.878Z,13.73
2018-04-10T03:36:26.028Z,13.64
2018-04-10T03:37:26.207Z,13.54
2018-04-10T03:38:26.345Z,13.58
2018-04-10T03:39:26.489Z,13.55
2018-04-10T03:40:26.662Z,13.64
2018-04-10T03:41:26.803Z,13.47
2018-04-10T03:42:26.949Z,13.53
2018-04-10T03:43:27.112Z,13.45
2018-04-10T03:44:27.252Z,13.47
2018-04-10T03:45:27.397Z,13.49
2018-04-10T03:46:27.543Z,13.63
2018-04-10T03:47:27.685Z,13.57
2018-04-10T03:48:27.833Z,13.54
2018-04-10T03:49:27.979Z,13.53
2018-04-10T03:50:28.125Z,13.46
2018-04-10T03:51:28.278Z,13.55
2018-04-10T03:52:28.412Z,13.42
2018-04-10T03:53:28.547Z,13.51
2018-04-10T03:54:28.689Z,13.55
2018-04-10T03:55:28.891Z,13.45
2018-04-10T03:56:28.982Z,13.45
2018-04-10T03:57:29.121Z,13.36
2018-04-10T03:58:29.260Z,13.35
2018-04-10T03:59:29.469Z,13.13
2018-04-10T04:00:29.521Z,13.04
2018-04-10T04:01:29.663Z,13.01
2018-04-10T04:02:29.804Z,13.01
2018-04-10T04:03:29.941Z,12.95
2018-04-10T04:04:30.091Z,12.88
2018-04-10T04:05:30.230Z,12.91
2018-04-10T04:06:30.371Z,12.88
2018-04-10T04:07:30.505Z,13.01
2018-04-10T04:08:30.645Z,13.05
2018-04-10T04:09:30.789Z,13.16
2018-04-10T04:10:30.925Z,13.01
2018-04-10T04:11:31.057Z,13.04
2018-04-10T04:12:31.198Z,13.13
2018-04-10T04:13:31.338Z,13.08
2018-04-10T04:14:31.476Z,13.17
2018-04-10T04:15:31.649Z,13.01
2018-04-10T04:16:31.798Z,12.88
2018-04-10T04:17:31.938Z,12.71
2018-04-10T04:18:32.080Z,12.66
2018-04-10T04:19:32.212Z,12.68
2018-04-10T04:20:32.349Z,12.77
2018-04-10T04:21:32.488Z,12.81
2018-04-10T04:22:32.630Z,12.77
2018-04-10T04:23:32.775Z,12.91
2018-04-10T04:24:32.953Z,12.83
2018-04-10T04:25:33.088Z,12.84
2018-04-10T04:26:33.225Z,12.90
2018-04-10T04:27:33.416Z,12.91
2018-04-10T04:28:33.550Z,12.91
2018-04-10T04:29:33.688Z,12.99
2018-04-10T04:30:33.827Z,12.93
2018-04-10T04:31:33.978Z,13.05
2018-04-10T04:32:34.114Z,12.95
2018-04-10T04:33:34.249Z,12.99
2018-04-10T04:34:34.394Z,13.16
2018-04-10T04:35:34.540Z,13.06
2018-04-10T04:36:34.674Z,13.14
2018-04-10T04:37:34.814Z,13.13
2018-04-10T04:38:34.947Z,13.16
2018-04-10T04:39:35.090Z,13.14
2018-04-10T04:40:35.224Z,13.17
2018-04-10T04:41:35.363Z,13.21
2018-04-10T04:42:35.505Z,13.13
2018-04-10T04:43:35.649Z,13.14
2018-04-10T04:44:35.786Z,13.16
2018-04-10T04:45:35.975Z,12.99
2018-04-10T04:46:36.085Z,12.99
2018-04-10T04:47:36.229Z,12.58
2018-04-10T04:48:36.365Z,12.26
2018-04-10T04:49:36.518Z,11.96
2018-04-10T04:50:36.652Z,11.54
2018-04-10T04:51:36.785Z,11.40
2018-04-10T04:52:36.952Z,11.25
2018-04-10T04:53:37.066Z,11.22
2018-04-10T04:54:37.191Z,11.22
2018-04-10T04:55:37.352Z,11.18
2018-04-10T04:56:37.483Z,11.09
2018-04-10T04:57:37.619Z,11.16
2018-04-10T04:58:37.759Z,11.31
2018-04-10T04:59:37.961Z,11.15
2018-04-10T05:00:38.052Z,11.18
2018-04-10T05:01:38.188Z,11.33
2018-04-10T05:02:38.334Z,11.52
2018-04-10T05:03:38.486Z,11.56
2018-04-10T05:04:38.619Z,11.56
2018-04-10T05:05:38.756Z,11.48
2018-04-10T05:06:38.893Z,11.51
2018-04-10T05:07:39.052Z,11.55
2018-04-10T05:08:39.187Z,11.58
2018-04-10T05:09:39.326Z,11.49
2018-04-10T05:10:39.466Z,11.55
2018-04-10T05:11:39.610Z,11.58
2018-04-10T05:12:39.746Z,11.77
2018-04-10T05:13:39.880Z,11.84
2018-04-10T05:14:40.015Z,11.89
2018-04-10T05:15:40.176Z,11.95
2018-04-10T05:16:40.313Z,11.99
2018-04-10T05:17:40.449Z,12.00
2018-04-10T05:18:40.593Z,12.00
2018-04-10T05:19:40.731Z,12.22
2018-04-10T05:20:40.881Z,12.33
2018-04-10T05:21:41.022Z,12.41
2018-04-10T05:22:41.154Z,12.55
2018-04-10T05:23:41.343Z,12.58
2018-04-10T05:24:41.373Z,12.72
2018-04-10T05:25:41.514Z,12.73
2018-04-10T05:26:41.653Z,12.72
2018-04-10T05:27:41.792Z,12.86
2018-04-10T05:28:41.934Z,12.99
2018-04-10T05:29:42.070Z,12.86
2018-04-10T05:30:42.213Z,13.01
2018-04-10T05:31:42.363Z,13.06
2018-04-10T05:32:42.498Z,13.06
2018-04-10T05:33:42.639Z,13.09
2018-04-10T05:34:42.782Z,13.01
2018-04-10T05:35:42.936Z,13.09
2018-04-10T05:36:43.061Z,13.05
2018-04-10T05:37:43.197Z,13.01
2018-04-10T05:38:43.333Z,12.93
2018-04-10T05:39:43.472Z,13.08
2018-04-10T05:40:43.612Z,13.08
2018-04-10T05:41:43.753Z,13.14
2018-04-10T05:42:43.896Z,13.20
2018-04-10T05:43:44.033Z,13.19
2018-04-10T05:44:44.171Z,13.21
2018-04-10T05:45:44.310Z,13.27
2018-04-10T05:46:44.457Z,13.24
2018-04-10T05:47:44.605Z,13.43
2018-04-10T05:48:44.744Z,13.32
2018-04-10T05:49:44.878Z,13.36
2018-04-10T05:50:45.016Z,13.36
2018-04-10T05:51:45.163Z,13.53
2018-04-10T05:52:45.325Z,13.53
2018-04-10T05:53:45.466Z,13.51
2018-04-10T05:54:45.604Z,13.54
2018-04-10T05:55:45.770Z,13.42
2018-04-10T05:56:45.906Z,13.46
2018-04-10T05:57:46.041Z,13.40
2018-04-10T05:58:46.228Z,13.39
2018-04-10T05:59:46.321Z,13.36
2018-04-10T06:00:46.457Z,13.47
2018-04-10T06:01:46.595Z,13.35
2018-04-10T06:02:46.737Z,12.99
2018-04-10T06:03:46.888Z,13.08
2018-04-10T06:04:47.543Z,12.84
2018-04-10T06:05:47.223Z,12.58
2018-04-10T06:06:47.382Z,12.23
2018-04-10T06:07:47.526Z,12.23
2018-04-10T06:08:47.663Z,12.40
2018-04-10T06:09:47.801Z,12.43
2018-04-10T06:10:47.950Z,12.38
2018-04-10T06:11:48.061Z,12.50
2018-04-10T06:12:48.211Z,12.47
2018-04-10T06:13:48.346Z,12.41
2018-04-10T06:14:48.556Z,12.28
2018-04-10T06:15:48.680Z,12.38
2018-04-10T06:16:48.804Z,12.41
2018-04-10T06:17:48.942Z,12.32
2018-04-10T06:18:49.094Z,12.40
2018-04-10T06:19:49.237Z,12.38
2018-04-10T06:20:49.373Z,12.59
2018-04-10T06:21:49.517Z,12.53
2018-04-10T06:22:49.674Z,12.44
2018-04-10T06:23:49.815Z,12.41
2018-04-10T06:24:49.958Z,12.17
2018-04-10T06:25:50.094Z,12.03
2018-04-10T06:26:50.239Z,12.05
2018-04-10T06:27:50.371Z,12.11
2018-04-10T06:28:50.509Z,12.14
2018-04-10T06:29:50.646Z,12.17
2018-04-10T06:30:50.806Z,12.15
2018-04-10T06:31:50.945Z,12.25
2018-04-10T06:32:51.081Z,12.22
2018-04-10T06:33:51.224Z,12.38
2018-04-10T06:34:52.063Z,12.41
2018-04-10T06:35:51.559Z,12.58
2018-04-10T06:36:51.702Z,12.65
2018-04-10T06:37:51.840Z,12.80
2018-04-10T06:38:51.981Z,12.95
2018-04-10T06:39:52.122Z,13.02
2018-04-10T06:40:52.257Z,12.84
2018-04-10T06:41:52.398Z,12.96
2018-04-10T06:42:52.541Z,12.86
2018-04-10T06:43:52.682Z,13.01
2018-04-10T06:44:52.820Z,12.87
2018-04-10T06:45:52.956Z,12.84
2018-04-10T06:46:53.100Z,12.93
2018-04-10T06:47:53.239Z,13.08
2018-04-10T06:48:53.385Z,13.11
2018-04-10T06:49:53.520Z,13.21
2018-04-10T06:50:53.657Z,13.06
2018-04-10T06:51:53.795Z,13.02
2018-04-10T06:52:53.942Z,12.95
2018-04-10T06:53:54.072Z,12.90
2018-04-10T06:54:54.211Z,13.04
2018-04-10T06:55:54.352Z,13.13
2018-04-10T06:56:54.491Z,13.17
2018-04-10T06:57:54.634Z,12.96
2018-04-10T06:58:54.778Z,13.09
2018-04-10T06:59:54.912Z,12.95
2018-04-10T07:00:55.049Z,12.98
2018-04-10T07:01:55.188Z,12.95
2018-04-10T07:02:55.325Z,13.16
2018-04-10T07:03:55.470Z,13.19
2018-04-10T07:04:55.608Z,13.21
2018-04-10T07:05:55.740Z,13.49
2018-04-10T07:06:55.879Z,13.46
2018-04-10T07:07:56.060Z,13.47
2018-04-10T07:08:56.163Z,13.67
2018-04-10T07:09:56.306Z,13.68
2018-04-10T07:10:56.444Z,13.91
2018-04-10T07:11:56.584Z,13.98
2018-04-10T07:12:56.713Z,14.09
2018-04-10T07:13:56.875Z,13.97
2018-04-10T07:14:57.012Z,14.04
2018-04-10T07:15:57.156Z,14.16
2018-04-10T07:16:57.293Z,14.19
2018-04-10T07:17:57.457Z,14.00
2018-04-10T07:18:57.633Z,14.03
2018-04-10T07:19:57.773Z,14.08
2018-04-10T07:20:57.915Z,14.00
2018-04-10T07:21:58.073Z,13.88
2018-04-10T07:22:58.205Z,13.86
2018-04-10T07:23:58.340Z,13.71
2018-04-10T07:24:58.485Z,13.76
2018-04-10T07:25:58.656Z,13.78
2018-04-10T07:26:58.793Z,13.83
2018-04-10T07:27:58.936Z,13.96
2018-04-10T07:28:59.075Z,14.12
2018-04-10T07:29:59.222Z,14.12
2018-04-10T07:30:59.367Z,14.19
2018-04-10T07:31:59.511Z,14.11
2018-04-10T07:32:59.655Z,14.19
2018-04-10T07:33:59.830Z,14.31
2018-04-10T07:34:59.936Z,14.48
2018-04-10T07:36:00.068Z,14.41
2018-04-10T07:37:00.206Z,14.41
2018-04-10T07:38:00.375Z,14.48
2018-04-10T07:39:00.497Z,14.52
2018-04-10T07:40:00.638Z,14.59
2018-04-10T07:41:00.780Z,14.58
2018-04-10T07:42:00.950Z,14.58
2018-04-10T07:43:01.062Z,14.52
2018-04-10T07:44:01.214Z,14.67
2018-04-10T07:45:01.356Z,14.78
2018-04-10T07:46:01.531Z,14.87
2018-04-10T07:47:01.666Z,14.93
2018-04-10T07:48:01.806Z,14.90
2018-04-10T07:49:01.969Z,14.93
2018-04-10T07:50:02.103Z,15.03
2018-04-10T07:51:02.239Z,15.04
2018-04-10T07:52:02.377Z,15.05
2018-04-10T07:53:02.555Z,15.17
2018-04-10T07:54:02.672Z,15.25
2018-04-10T07:55:02.811Z,15.29
2018-04-10T07:56:02.948Z,15.43
2018-04-10T07:57:03.109Z,15.51
2018-04-10T07:58:03.256Z,15.63
2018-04-10T07:59:03.391Z,15.65
2018-04-10T08:00:03.536Z,15.84
2018-04-10T08:01:03.690Z,15.95
2018-04-10T08:02:03.826Z,16.02
2018-04-10T08:03:03.978Z,16.10
2018-04-10T08:04:04.120Z,16.14
2018-04-10T08:05:04.310Z,16.16
2018-04-10T08:06:04.432Z,16.33
2018-04-10T08:07:04.569Z,16.37
2018-04-10T08:08:04.707Z,16.40
2018-04-10T08:09:04.856Z,16.43
2018-04-10T08:10:04.991Z,16.46
2018-04-10T08:11:05.133Z,16.44
2018-04-10T08:12:05.275Z,16.40
2018-04-10T08:13:05.421Z,16.52
2018-04-10T08:14:05.554Z,16.62
2018-04-10T08:15:05.700Z,16.65
2018-04-10T08:16:05.840Z,16.82
2018-04-10T08:17:06.005Z,16.76
2018-04-10T08:18:06.142Z,16.72
2018-04-10T08:19:06.279Z,16.90
2018-04-10T08:20:06.424Z,16.83
2018-04-10T08:21:06.577Z,16.95
2018-04-10T08:22:06.732Z,17.02
2018-04-10T08:23:06.873Z,16.91
2018-04-10T08:24:07.016Z,16.77
2018-04-10T08:25:07.197Z,16.90
2018-04-10T08:26:07.295Z,16.90
2018-04-10T08:27:07.434Z,16.83
2018-04-10T08:28:07.575Z,16.82
2018-04-10T08:29:07.716Z,16.83
2018-04-10T08:30:07.858Z,16.94
2018-04-10T08:31:07.994Z,16.94
2018-04-10T08:32:08.134Z,17.07
2018-04-10T08:33:08.271Z,17.10
2018-04-10T08:34:08.412Z,17.20
2018-04-10T08:35:08.557Z,17.24
2018-04-10T08:36:08.705Z,17.34
2018-04-10T08:37:08.849Z,17.43
2018-04-10T08:38:08.992Z,17.35
2018-04-10T08:39:09.129Z,17.46
2018-04-10T08:40:09.269Z,17.62
2018-04-10T08:41:09.406Z,17.59
2018-04-10T08:42:09.545Z,17.76
2018-04-10T08:43:09.689Z,17.72
2018-04-10T08:44:09.833Z,17.81
2018-04-10T08:45:09.969Z,17.91
2018-04-10T08:46:10.113Z,17.93
2018-04-10T08:47:10.250Z,18.02
2018-04-10T08:48:10.388Z,18.06
2018-04-10T08:49:10.538Z,18.05
2018-04-10T08:50:10.674Z,18.12
2018-04-10T08:51:10.821Z,18.18
2018-04-10T08:52:10.957Z,18.36
2018-04-10T08:53:11.097Z,18.36
2018-04-10T08:54:11.251Z,18.39
2018-04-10T08:55:11.391Z,18.56
2018-04-10T08:56:11.536Z,18.60
2018-04-10T08:57:11.719Z,18.63
2018-04-10T08:58:11.856Z,18.71
2018-04-10T08:59:12.006Z,18.67
2018-04-10T09:00:12.151Z,18.81
2018-04-10T09:01:12.287Z,18.91
2018-04-10T09:02:12.447Z,19.04
2018-04-10T09:03:12.571Z,19.15
2018-04-10T09:04:12.715Z,19.24
2018-04-10T09:05:12.864Z,19.22
2018-04-10T09:06:13.086Z,19.35
2018-04-10T09:07:13.099Z,19.38
2018-04-10T09:08:13.241Z,19.41
2018-04-10T09:09:13.382Z,19.37
2018-04-10T09:10:13.544Z,19.50
2018-04-10T09:11:13.690Z,19.53
2018-04-10T09:12:13.825Z,19.50
2018-04-10T09:13:13.965Z,19.64
2018-04-10T09:14:14.120Z,19.64
2018-04-10T09:15:14.253Z,19.70
2018-04-10T09:16:14.395Z,19.68
2018-04-10T09:17:14.536Z,19.81
2018-04-10T09:18:14.684Z,19.84
2018-04-10T09:19:14.830Z,19.87
2018-04-10T09:20:14.962Z,19.87
2018-04-10T09:21:15.101Z,19.89
2018-04-10T09:22:15.248Z,19.90
2018-04-10T09:23:15.382Z,20.04
2018-04-10T09:24:15.527Z,19.97
2018-04-10T09:25:15.691Z,20.12
2018-04-10T09:26:15.839Z,20.04
2018-04-10T09:27:15.977Z,20.18
2018-04-10T09:28:16.170Z,20.14
2018-04-10T09:29:16.275Z,20.18
2018-04-10T09:30:16.415Z,20.29
2018-04-10T09:31:16.559Z,20.30
2018-04-10T09:32:16.729Z,20.32
2018-04-10T09:33:16.872Z,20.42
2018-04-10T09:34:17.027Z,20.48
2018-04-10T09:35:17.171Z,20.56
2018-04-10T09:36:17.314Z,20.53
2018-04-10T09:37:17.462Z,20.55
2018-04-10T09:38:17.607Z,20.56
2018-04-10T09:39:17.739Z,20.61
2018-04-10T09:40:17.916Z,20.61
2018-04-10T09:41:18.043Z,20.70
2018-04-10T09:42:18.190Z,20.79
2018-04-10T09:43:18.330Z,20.73
2018-04-10T09:44:18.490Z,20.75
2018-04-10T09:45:18.620Z,20.80
2018-04-10T09:46:18.762Z,20.75
2018-04-10T09:47:18.902Z,20.82
2018-04-10T09:48:19.050Z,20.90
2018-04-10T09:49:19.188Z,20.90
2018-04-10T09:50:19.325Z,20.90
2018-04-10T09:51:19.479Z,20.92
2018-04-10T09:52:19.626Z,21.03
2018-04-10T09:53:19.761Z,21.20
2018-04-10T09:54:19.904Z,21.18
2018-04-10T09:55:20.051Z,21.26
2018-04-10T09:56:20.192Z,21.30
2018-04-10T09:57:20.334Z,21.23
2018-04-10T09:58:20.478Z,21.23
2018-04-10T09:59:20.621Z,21.25
2018-04-10T10:00:20.765Z,21.34
2018-04-10T10:01:20.905Z,21.26
2018-04-10T10:02:21.056Z,21.26
2018-04-10T10:03:21.202Z,21.34
2018-04-10T10:04:21.347Z,21.38
2018-04-10T10:05:21.493Z,21.44
2018-04-10T10:06:21.647Z,21.55
2018-04-10T10:07:21.787Z,21.53
2018-04-10T10:08:21.931Z,21.48
2018-04-10T10:09:22.083Z,21.59
2018-04-10T10:10:22.224Z,21.48
2018-04-10T10:11:22.367Z,21.50
2018-04-10T10:12:22.512Z,21.59
2018-04-10T10:13:22.654Z,21.63
2018-04-10T10:14:22.799Z,21.73
2018-04-10T10:15:22.943Z,21.81
2018-04-10T10:16:23.088Z,21.77
2018-04-10T10:17:23.230Z,21.80
2018-04-10T10:18:23.375Z,21.82
2018-04-10T10:19:23.513Z,21.96
2018-04-10T10:20:23.663Z,22.04
2018-04-10T10:21:23.808Z,22.07
2018-04-10T10:22:23.948Z,22.07
2018-04-10T10:23:24.092Z,22.06
2018-04-10T10:24:24.239Z,22.13
2018-04-10T10:25:24.395Z,22.25
2018-04-10T10:26:24.531Z,22.27
2018-04-10T10:27:24.674Z,22.34
2018-04-10T10:28:24.815Z,22.38
2018-04-10T10:29:24.993Z,22.52
2018-04-10T10:30:25.134Z,22.55
2018-04-10T10:31:25.281Z,22.52
2018-04-10T10:32:25.431Z,22.59
2018-04-10T10:33:25.602Z,22.53
2018-04-10T10:34:25.739Z,22.58
2018-04-10T10:35:25.881Z,22.68
2018-04-10T10:36:26.020Z,22.73
2018-04-10T10:37:26.200Z,22.68
2018-04-10T10:38:26.302Z,22.81
2018-04-10T10:39:26.451Z,22.78
2018-04-10T10:40:26.589Z,22.80
2018-04-10T10:41:26.738Z,22.83
2018-04-10T10:42:26.882Z,22.91
2018-04-10T10:43:27.024Z,22.98
2018-04-10T10:44:27.222Z,22.99
2018-04-10T10:45:27.356Z,23.03
2018-04-10T10:46:27.499Z,23.15
2018-04-10T10:47:27.645Z,23.08
2018-04-10T10:48:27.801Z,23.15
2018-04-10T10:49:27.953Z,23.28
2018-04-10T10:50:28.090Z,23.29
2018-04-10T10:51:28.236Z,23.46
2018-04-10T10:52:28.382Z,23.51
2018-04-10T10:53:28.525Z,23.59
2018-04-10T10:54:28.680Z,23.70
2018-04-10T10:55:28.831Z,24.08
2018-04-10T10:56:28.971Z,24.52
2018-04-10T10:57:29.119Z,24.76
2018-04-10T10:58:29.261Z,25.18
2018-04-10T10:59:29.412Z,25.67
2018-04-10T11:00:29.560Z,26.11
2018-04-10T11:01:29.706Z,26.64
2018-04-10T11:02:29.869Z,27.25
2018-04-10T11:03:30.011Z,27.90
2018-04-10T11:04:30.173Z,28.49
2018-04-10T11:05:30.316Z,29.29
2018-04-10T11:06:30.478Z,30.11
2018-04-10T11:07:30.615Z,30.74
2018-04-10T11:08:30.791Z,31.26
2018-04-10T11:09:30.931Z,31.67
2018-04-10T11:10:31.078Z,32.21
2018-04-10T11:11:31.232Z,32.27
2018-04-10T11:12:31.418Z,32.57
2018-04-10T11:13:31.562Z,32.65
2018-04-10T11:14:31.716Z,32.98
2018-04-10T11:15:31.899Z,33.48
2018-04-10T11:16:32.044Z,33.60
2018-04-10T11:17:32.206Z,33.92
2018-04-10T11:18:32.356Z,34.06
2018-04-10T11:19:32.532Z,34.10
2018-04-10T11:20:32.685Z,34.30
2018-04-10T11:21:32.831Z,34.60
2018-04-10T11:22:33.006Z,34.94
2018-04-10T11:23:33.153Z,35.23
2018-04-10T11:24:33.394Z,35.04
2018-04-10T11:25:33.452Z,35.34
2018-04-10T11:26:33.602Z,35.56
2018-04-10T11:27:33.791Z,35.69
2018-04-10T11:28:33.947Z,35.84
2018-04-10T11:29:34.105Z,35.90
2018-04-10T11:30:34.255Z,36.06
2018-04-10T11:31:34.422Z,36.03
2018-04-10T11:34:06.519Z,36.35
2018-04-10T11:35:06.645Z,36.32
2018-04-10T11:36:06.803Z,36.04
2018-04-10T11:37:06.959Z,36.38
2018-04-10T11:38:07.111Z,36.57
2018-04-10T11:39:07.320Z,36.75
2018-04-10T11:40:07.430Z,37.04
2018-04-10T11:41:07.586Z,37.22
2018-04-10T11:42:07.744Z,37.23
2018-04-10T11:43:07.898Z,37.38
2018-04-10T11:44:08.062Z,37.54
2018-04-10T11:45:08.219Z,37.57
2018-04-10T11:46:08.371Z,37.44
2018-04-10T11:47:08.528Z,37.16
2018-04-10T11:48:08.692Z,36.96
2018-04-10T11:49:08.854Z,37.25
2018-04-10T11:50:09.015Z,37.58
2018-04-10T11:51:09.173Z,37.72
2018-04-10T11:52:09.329Z,37.92
2018-04-10T11:53:09.482Z,37.41
2018-04-10T11:54:09.640Z,37.42
2018-04-10T11:55:09.797Z,37.10
2018-04-10T11:56:09.958Z,36.91
2018-04-10T11:57:10.132Z,37.22
2018-04-10T11:58:10.282Z,37.47
2018-04-10T11:59:10.462Z,37.91
2018-04-10T12:00:10.634Z,37.83
2018-04-10T12:01:10.780Z,38.10
2018-04-10T12:02:10.933Z,38.13
2018-04-10T12:03:11.116Z,38.55
2018-04-10T12:04:11.279Z,38.25
2018-04-10T12:05:11.442Z,37.83
2018-04-10T12:06:11.599Z,37.55
2018-04-10T12:07:11.777Z,37.60
2018-04-10T12:08:11.935Z,37.77
2018-04-10T12:09:12.090Z,38.14
2018-04-10T12:10:12.269Z,38.33
2018-04-10T12:11:12.410Z,38.55
2018-04-10T12:12:12.566Z,38.71
2018-04-10T12:13:12.731Z,38.51
2018-04-10T12:14:12.925Z,38.39
2018-04-10T12:15:13.060Z,38.45
2018-04-10T12:16:13.224Z,38.33
2018-04-10T12:17:13.382Z,38.18
2018-04-10T12:18:13.550Z,38.45
2018-04-10T12:19:13.701Z,38.57
2018-04-10T12:20:13.868Z,38.64
2018-04-10T12:21:14.028Z,38.67
2018-04-10T12:22:14.192Z,38.85
2018-04-10T12:23:14.349Z,38.78
2018-04-10T12:24:14.546Z,38.88
2018-04-10T12:25:14.769Z,38.60
2018-04-10T12:26:14.853Z,38.78
2018-04-10T12:27:15.013Z,39.02
2018-04-10T12:28:15.171Z,39.28
2018-04-10T12:29:15.362Z,39.40
2018-04-10T12:30:15.516Z,39.74
2018-04-10T12:31:15.679Z,39.83
2018-04-10T12:32:15.839Z,39.94
2018-04-10T12:33:16.049Z,40.01
2018-04-10T12:34:16.171Z,40.02
2018-04-10T12:35:16.331Z,40.02
2018-04-10T12:36:16.494Z,40.01
2018-04-10T12:37:16.682Z,39.94
2018-04-10T12:38:16.834Z,39.92
2018-04-10T12:39:17.003Z,40.10
2018-04-10T12:40:17.166Z,40.18
2018-04-10T12:41:17.330Z,40.33
2018-04-10T12:42:17.472Z,40.17
2018-04-10T12:43:17.632Z,40.32
2018-04-10T12:44:17.793Z,40.32
2018-04-10T12:45:17.969Z,40.18
2018-04-10T12:46:18.127Z,40.02
2018-04-10T12:47:18.293Z,39.70
2018-04-10T12:48:18.451Z,39.74
2018-04-10T12:49:18.610Z,39.65
2018-04-10T12:50:18.768Z,39.58
2018-04-10T12:51:18.926Z,39.45
2018-04-10T12:52:19.089Z,39.46
2018-04-10T12:53:19.239Z,39.40
2018-04-10T12:54:19.400Z,39.01
2018-04-10T12:55:19.568Z,39.09
2018-04-10T12:56:19.730Z,39.20